Maersk Durban — 9V5670 — position and weather

sailwx.info

Track history (hours):
 
Tides and Currents Weather Stations Pressure Air Temp Water Temp Dewpoint Dewpoint Depression Visibility Wind Speed Wind Dir Waves Ship Positions

Maersk Durban

Last reported at 2018-Aug-14 18:58 UTC. Time now 2018-Aug-14 19:29 UTC.
Position N 39°27' W 000°19'.

Length 208 m; draft 10 m.

Type: Ship. MMSI: 563035300.

Date/timePositionNaut miles runAvg speedWind from/ knotsBaromVisibWave heightAir tempDewpointWater temp
2018-Aug-14 18:58N 39°27' W 000°19'0 0.0
2018-Aug-14 18:28N 39°27' W 000°19'0 0.0
2018-Aug-14 17:58N 39°27' W 000°19'0 0.0
2018-Aug-14 17:28N 39°27' W 000°19'0 0.0
2018-Aug-14 17:01N 39°27' W 000°19'0 0.0
2018-Aug-14 16:30N 39°27' W 000°19'0 0.0
2018-Aug-14 16:00N 39°27' W 000°19'0 0.0
2018-Aug-14 15:30N 39°27' W 000°19'0 0.0
2018-Aug-14 15:00N 39°27' W 000°19'0 0.0
2018-Aug-14 14:29N 39°27' W 000°19'0 0.0
2018-Aug-14 13:59N 39°27' W 000°19'0 0.0
2018-Aug-14 13:23N 39°27' W 000°19'0 0.0
2018-Aug-14 12:59N 39°27' W 000°19'0 0.0
2018-Aug-14 12:29N 39°27' W 000°19'0 0.0
2018-Aug-14 11:58N 39°27' W 000°19'0 0.0
2018-Aug-14 11:28N 39°27' W 000°19'0 0.0
2018-Aug-14 10:58N 39°27' W 000°19'0 0.0
2018-Aug-14 10:28N 39°27' W 000°19'0 0.0
2018-Aug-14 10:00N 39°27' W 000°19'0 0.0
2018-Aug-14 09:30N 39°27' W 000°19'0 0.0
2018-Aug-14 09:00N 39°27' W 000°19'0 0.0
2018-Aug-14 08:30N 39°27' W 000°19'0 0.0
2018-Aug-14 08:00N 39°27' W 000°19'0 0.0
2018-Aug-14 07:29N 39°27' W 000°19'0 0.0
2018-Aug-14 06:59N 39°27' W 000°19'0 0.0
2018-Aug-14 06:29N 39°27' W 000°19'0 0.0
2018-Aug-14 05:59N 39°27' W 000°19'0 0.1
2018-Aug-14 05:29N 39°27' W 000°19'3 5.6
2018-Aug-14 05:00N 39°25' W 000°17'4 7.0
2018-Aug-14 04:26N 39°23' W 000°12'5313.3
2018-Aug-14 00:26N 38°38' E 000°24'715.1
2018-Aug-13 23:59N 38°32' E 000°19'1015.1
2018-Aug-13 23:20N 38°24' E 000°12'2915.2
2018-Aug-13 21:23N 37°59' W 000°09'1115.5
2018-Aug-13 20:40N 37°50' W 000°17'815.7
2018-Aug-13 20:08N 37°43' W 000°23'315.8
2018-Aug-13 19:58N 37°41' W 000°24'715.9
2018-Aug-13 19:30N 37°35' W 000°30'915.9
2018-Aug-13 18:56N 37°28' W 000°38'715.8
2018-Aug-13 18:29N 37°23' W 000°44'915.9
2018-Aug-13 17:56N 37°18' W 000°53'20915.2
2018-Aug-13 04:09N 36°01' W 004°55'316.4
2018-Aug-13 04:00N 36°00' W 004°58'916.7
2018-Aug-13 03:29N 35°59' W 005°08'817.4
2018-Aug-13 03:00N 35°58' W 005°19'916.0
2018-Aug-13 02:28N 35°56' W 005°29'2 1.0
2018-Aug-13 00:31N 35°54' W 005°29'0 0.0
2018-Aug-13 00:24N 35°54' W 005°29'3 0.2
2018-Aug-12 11:32N 35°56' W 005°31'0 9.0
2018-Aug-12 11:31N 35°56' W 005°31'3 6.7
2018-Aug-12 11:00N 35°59' W 005°28'3 6.7
2018-Aug-12 10:30N 36°00' W 005°24'5 9.6
2018-Aug-12 10:00N 36°05' W 005°23'4 0.2
2018-Aug-11 11:53N 36°09' W 005°26'3 6.2
2018-Aug-11 11:27N 36°07' W 005°23'3 7.4
2018-Aug-11 11:00N 36°04' W 005°23'1 2.8
2018-Aug-11 10:30N 36°03' W 005°23'4 7.2
2018-Aug-11 09:59N 35°59' W 005°25'10613.2
2018-Aug-11 01:57N 34°55' W 007°09'5513.5
2018-Aug-10 21:54N 34°16' W 007°55'5013.5
2018-Aug-10 18:14N 33°41' W 008°37'412.9
2018-Aug-10 17:53N 33°38' W 008°41'512.7
2018-Aug-10 17:30N 33°35' W 008°45'1112.3
2018-Aug-10 16:35N 33°27' W 008°55'112.3
2018-Aug-10 16:30N 33°26' W 008°56'612.2
2018-Aug-10 16:00N 33°22' W 009°01'33010.7
2018-Aug-09 09:18N 29°00' W 012°56'414.6
2018-Aug-09 09:01N 28°57' W 012°59'1514.1
2018-Aug-09 07:58N 28°45' W 013°08'614.0
2018-Aug-09 07:30N 28°39' W 013°12'714.3
2018-Aug-09 07:00N 28°33' W 013°16'914.3
2018-Aug-09 06:24N 28°26' W 013°21'614.3
2018-Aug-09 06:00N 28°21' W 013°25'714.0
2018-Aug-09 05:29N 28°15' W 013°30'713.9
2018-Aug-09 04:58N 28°09' W 013°34'613.6
2018-Aug-09 04:29N 28°04' W 013°38'713.5
2018-Aug-09 04:00N 27°58' W 013°42'713.4
2018-Aug-09 03:30N 27°52' W 013°46'713.5
2018-Aug-09 02:58N 27°47' W 013°51'5314.1
2018-Aug-08 23:12N 27°02' W 014°24'615.1
2018-Aug-08 22:46N 26°57' W 014°28'415.1
2018-Aug-08 22:29N 26°53' W 014°31'815.1
2018-Aug-08 21:59N 26°47' W 014°36'815.4
2018-Aug-08 21:30N 26°41' W 014°40'916.5
2018-Aug-08 20:57N 26°33' W 014°46'14316.1
2018-Aug-08 12:05N 24°34' W 016°13'215.5
2018-Aug-08 11:58N 24°33' W 016°14'  
Track history (hours):
 
Tides and Currents Weather Stations Pressure Air Temp Water Temp Dewpoint Dewpoint Depression Visibility Wind Speed Wind Dir Waves Ship Positions

Maersk Durban

Last reported at 2018-Aug-14 18:58 UTC. Time now 2018-Aug-14 19:29 UTC.
Position N 39°27' W 000°19'.

Length 208 m; draft 10 m.

Type: Ship. MMSI: 563035300.

Date/timePositionNaut miles runAvg speedWind from/ knotsBaromVisibWave heightAir tempDewpointWater temp
2018-Aug-14 18:58N 39°27' W 000°19'0 0.0
2018-Aug-14 18:28N 39°27' W 000°19'0 0.0
2018-Aug-14 17:58N 39°27' W 000°19'0 0.0
2018-Aug-14 17:28N 39°27' W 000°19'0 0.0
2018-Aug-14 17:01N 39°27' W 000°19'0 0.0
2018-Aug-14 16:30N 39°27' W 000°19'0 0.0
2018-Aug-14 16:00N 39°27' W 000°19'0 0.0
2018-Aug-14 15:30N 39°27' W 000°19'0 0.0
2018-Aug-14 15:00N 39°27' W 000°19'0 0.0
2018-Aug-14 14:29N 39°27' W 000°19'0 0.0
2018-Aug-14 13:59N 39°27' W 000°19'0 0.0
2018-Aug-14 13:23N 39°27' W 000°19'0 0.0
2018-Aug-14 12:59N 39°27' W 000°19'0 0.0
2018-Aug-14 12:29N 39°27' W 000°19'0 0.0
2018-Aug-14 11:58N 39°27' W 000°19'0 0.0
2018-Aug-14 11:28N 39°27' W 000°19'0 0.0
2018-Aug-14 10:58N 39°27' W 000°19'0 0.0
2018-Aug-14 10:28N 39°27' W 000°19'0 0.0
2018-Aug-14 10:00N 39°27' W 000°19'0 0.0
2018-Aug-14 09:30N 39°27' W 000°19'0 0.0
2018-Aug-14 09:00N 39°27' W 000°19'0 0.0
2018-Aug-14 08:30N 39°27' W 000°19'0 0.0
2018-Aug-14 08:00N 39°27' W 000°19'0 0.0
2018-Aug-14 07:29N 39°27' W 000°19'0 0.0
2018-Aug-14 06:59N 39°27' W 000°19'0 0.0
2018-Aug-14 06:29N 39°27' W 000°19'0 0.0
2018-Aug-14 05:59N 39°27' W 000°19'0 0.1
2018-Aug-14 05:29N 39°27' W 000°19'3 5.6
2018-Aug-14 05:00N 39°25' W 000°17'4 7.0
2018-Aug-14 04:26N 39°23' W 000°12'5313.3
2018-Aug-14 00:26N 38°38' E 000°24'715.1
2018-Aug-13 23:59N 38°32' E 000°19'1015.1
2018-Aug-13 23:20N 38°24' E 000°12'2915.2
2018-Aug-13 21:23N 37°59' W 000°09'1115.5
2018-Aug-13 20:40N 37°50' W 000°17'815.7
2018-Aug-13 20:08N 37°43' W 000°23'315.8
2018-Aug-13 19:58N 37°41' W 000°24'715.9
2018-Aug-13 19:30N 37°35' W 000°30'915.9
2018-Aug-13 18:56N 37°28' W 000°38'715.8
2018-Aug-13 18:29N 37°23' W 000°44'915.9
2018-Aug-13 17:56N 37°18' W 000°53'20915.2
2018-Aug-13 04:09N 36°01' W 004°55'316.4
2018-Aug-13 04:00N 36°00' W 004°58'916.7
2018-Aug-13 03:29N 35°59' W 005°08'817.4
2018-Aug-13 03:00N 35°58' W 005°19'916.0
2018-Aug-13 02:28N 35°56' W 005°29'2 1.0
2018-Aug-13 00:31N 35°54' W 005°29'0 0.0
2018-Aug-13 00:24N 35°54' W 005°29'3 0.2
2018-Aug-12 11:32N 35°56' W 005°31'0 9.0
2018-Aug-12 11:31N 35°56' W 005°31'3 6.7
2018-Aug-12 11:00N 35°59' W 005°28'3 6.7
2018-Aug-12 10:30N 36°00' W 005°24'5 9.6
2018-Aug-12 10:00N 36°05' W 005°23'4 0.2
2018-Aug-11 11:53N 36°09' W 005°26'3 6.2
2018-Aug-11 11:27N 36°07' W 005°23'3 7.4
2018-Aug-11 11:00N 36°04' W 005°23'1 2.8
2018-Aug-11 10:30N 36°03' W 005°23'4 7.2
2018-Aug-11 09:59N 35°59' W 005°25'10613.2
2018-Aug-11 01:57N 34°55' W 007°09'5513.5
2018-Aug-10 21:54N 34°16' W 007°55'5013.5
2018-Aug-10 18:14N 33°41' W 008°37'412.9
2018-Aug-10 17:53N 33°38' W 008°41'512.7
2018-Aug-10 17:30N 33°35' W 008°45'1112.3
2018-Aug-10 16:35N 33°27' W 008°55'112.3
2018-Aug-10 16:30N 33°26' W 008°56'612.2
2018-Aug-10 16:00N 33°22' W 009°01'33010.7
2018-Aug-09 09:18N 29°00' W 012°56'414.6
2018-Aug-09 09:01N 28°57' W 012°59'1514.1
2018-Aug-09 07:58N 28°45' W 013°08'614.0
2018-Aug-09 07:30N 28°39' W 013°12'714.3
2018-Aug-09 07:00N 28°33' W 013°16'914.3
2018-Aug-09 06:24N 28°26' W 013°21'614.3
2018-Aug-09 06:00N 28°21' W 013°25'714.0
2018-Aug-09 05:29N 28°15' W 013°30'713.9
2018-Aug-09 04:58N 28°09' W 013°34'613.6
2018-Aug-09 04:29N 28°04' W 013°38'713.5
2018-Aug-09 04:00N 27°58' W 013°42'713.4
2018-Aug-09 03:30N 27°52' W 013°46'713.5
2018-Aug-09 02:58N 27°47' W 013°51'5314.1
2018-Aug-08 23:12N 27°02' W 014°24'615.1
2018-Aug-08 22:46N 26°57' W 014°28'415.1
2018-Aug-08 22:29N 26°53' W 014°31'815.1
2018-Aug-08 21:59N 26°47' W 014°36'815.4
2018-Aug-08 21:30N 26°41' W 014°40'916.5
2018-Aug-08 20:57N 26°33' W 014°46'14316.1
2018-Aug-08 12:05N 24°34' W 016°13'215.5
2018-Aug-08 11:58N 24°33' W 016°14'  

Dump ship's entire track history